Time;durP1;ratioP1;P1;durP2;ratioP2;P2;SDS_P1;SDS_P2;PMS_P1;PMS_P2;Temp;Humidity;BMP_temperature;BMP_pressure;BME280_temperature;BME280_humidity;BME280_pressure;Samples;Min_cycle;Max_cycle;Signal;HPM_P1;HPM_P2
2023/03/12 00:01:15;;;;;;;4.40;3.25;;;7.00;99.90;;;;;;5012583;28;20050;-80
2023/03/12 00:03:42;;;;;;;4.93;3.03;;;7.00;99.90;;;;;;5011725;28;20053;-80
2023/03/12 00:06:10;;;;;;;3.33;2.75;;;7.00;99.90;;;;;;5018456;28;20100;-79
2023/03/12 00:08:37;;;;;;;5.80;3.53;;;7.10;99.90;;;;;;5009384;28;20050;-80
2023/03/12 00:11:06;;;;;;;5.30;3.40;;;7.10;99.90;;;;;;5012163;28;20050;-79
2023/03/12 00:13:32;;;;;;;4.70;3.03;;;7.10;99.90;;;;;;5018435;28;20073;-80
2023/03/12 00:16:04;;;;;;;4.88;2.97;;;7.00;99.90;;;;;;5017769;28;20053;-77
2023/03/12 00:18:31;;;;;;;5.85;3.53;;;7.00;99.90;;;;;;5019542;28;20092;-78
2023/03/12 00:20:58;;;;;;;5.75;3.30;;;7.00;99.90;;;;;;5015922;28;20041;-80
2023/03/12 00:23:25;;;;;;;6.47;3.30;;;7.00;99.90;;;;;;5033478;28;20048;-80
2023/03/12 00:25:51;;;;;;;6.65;3.10;;;7.00;99.90;;;;;;5014498;28;20045;-79
2023/03/12 00:28:18;;;;;;;7.13;3.58;;;7.00;99.90;;;;;;5012087;28;20068;-79
2023/03/12 00:30:45;;;;;;;4.22;3.22;;;7.00;99.90;;;;;;5017850;28;20429;-80
2023/03/12 00:33:11;;;;;;;4.50;3.75;;;7.00;99.90;;;;;;5014485;28;20129;-79
2023/03/12 00:35:38;;;;;;;5.00;3.65;;;7.00;99.90;;;;;;5017516;28;20050;-79
2023/03/12 00:38:05;;;;;;;6.47;3.60;;;7.00;99.90;;;;;;5026346;28;20045;-81
2023/03/12 00:40:31;;;;;;;3.67;3.10;;;7.00;99.90;;;;;;5021375;28;20081;-79
2023/03/12 00:42:58;;;;;;;5.65;3.65;;;7.00;99.90;;;;;;5019539;28;20054;-79
2023/03/12 00:45:25;;;;;;;6.88;3.47;;;7.00;99.90;;;;;;5015892;28;20046;-79
2023/03/12 00:47:51;;;;;;;6.75;3.78;;;7.00;99.90;;;;;;5015663;28;20046;-79
2023/03/12 00:50:18;;;;;;;5.57;3.70;;;7.00;99.90;;;;;;5015323;28;20046;-79
2023/03/12 00:52:45;;;;;;;5.13;3.63;;;7.00;99.90;;;;;;5017217;28;20129;-78
2023/03/12 00:55:12;;;;;;;6.07;3.53;;;7.00;99.90;;;;;;5017258;28;20045;-82
2023/03/12 00:57:38;;;;;;;8.70;3.58;;;7.00;99.90;;;;;;5016136;28;20057;-79
2023/03/12 01:00:09;;;;;;;4.93;3.30;;;7.00;99.90;;;;;;5011551;28;20084;-79
2023/03/12 01:02:37;;;;;;;4.68;3.63;;;7.00;99.90;;;;;;5029431;28;20054;-77
2023/03/12 01:05:06;;;;;;;5.85;3.38;;;7.00;99.90;;;;;;5015469;28;20505;-81
2023/03/12 01:07:34;;;;;;;6.07;3.80;;;7.00;99.90;;;;;;5022210;28;20429;-80
2023/03/12 01:10:01;;;;;;;7.57;3.38;;;7.00;99.90;;;;;;5021273;28;20493;-80
2023/03/12 01:12:27;;;;;;;4.18;3.10;;;7.00;99.90;;;;;;5019855;28;20041;-79
2023/03/12 01:14:54;;;;;;;4.22;3.17;;;7.00;99.90;;;;;;5014128;28;20046;-78
2023/03/12 01:17:21;;;;;;;4.47;3.17;;;6.90;99.90;;;;;;5012045;28;20084;-80
2023/03/12 01:19:47;;;;;;;4.28;2.78;;;6.90;99.90;;;;;;5038495;28;20045;-79
2023/03/12 01:22:14;;;;;;;4.80;3.00;;;6.90;99.90;;;;;;5020453;28;20046;-82
2023/03/12 01:24:41;;;;;;;5.32;2.65;;;6.90;99.90;;;;;;5005812;28;20117;-81
2023/03/12 01:27:07;;;;;;;3.60;2.78;;;6.90;99.90;;;;;;5017288;28;20501;-79
2023/03/12 01:29:34;;;;;;;6.68;3.05;;;6.90;99.90;;;;;;5012926;28;20054;-79
2023/03/12 01:32:01;;;;;;;5.72;2.58;;;6.90;99.90;;;;;;5020471;28;20432;-80
2023/03/12 01:34:29;;;;;;;4.75;2.90;;;7.00;99.90;;;;;;5013901;28;20055;-79
2023/03/12 01:36:56;;;;;;;5.05;2.00;;;7.00;99.90;;;;;;5028192;28;20050;-79
2023/03/12 01:39:24;;;;;;;5.43;2.35;;;6.90;99.90;;;;;;5018345;28;20042;-79
2023/03/12 01:41:51;;;;;;;5.80;2.22;;;7.00;99.90;;;;;;5017478;28;20057;-78
2023/03/12 01:44:17;;;;;;;2.42;1.63;;;7.00;99.90;;;;;;5012037;28;20042;-81
2023/03/12 01:46:44;;;;;;;2.70;2.20;;;7.00;99.90;;;;;;5019692;28;20452;-79
2023/03/12 01:49:28;;;;;;;4.05;2.03;;;7.00;99.90;;;;;;5016507;28;20042;-79
2023/03/12 01:52:00;;;;;;;4.25;2.67;;;7.10;99.90;;;;;;5018459;28;20048;-78
2023/03/12 01:54:49;;;;;;;4.05;1.88;;;7.10;99.90;;;;;;5031243;28;20046;-79
2023/03/12 01:57:23;;;;;;;7.50;1.95;;;7.10;99.90;;;;;;5015531;28;20057;-81
2023/03/12 01:59:55;;;;;;;3.25;2.30;;;7.10;99.90;;;;;;5028654;28;20042;-80
2023/03/12 02:02:25;;;;;;;3.85;2.17;;;7.10;99.90;;;;;;5030132;28;20046;-79
2023/03/12 02:05:08;;;;;;;3.72;2.13;;;7.10;99.90;;;;;;5013248;28;20046;-80
2023/03/12 02:07:34;;;;;;;3.28;2.00;;;7.20;99.90;;;;;;5010682;28;20057;-80
2023/03/12 02:10:03;;;;;;;3.28;2.20;;;7.20;99.90;;;;;;5015023;28;20042;-79
2023/03/12 02:12:29;;;;;;;3.97;2.30;;;7.20;99.90;;;;;;5013875;28;20054;-81
2023/03/12 02:14:56;;;;;;;5.57;2.40;;;7.20;99.90;;;;;;5011876;28;20042;-79
2023/03/12 02:17:23;;;;;;;3.58;2.30;;;7.20;99.90;;;;;;5012988;28;20049;-79
2023/03/12 02:20:17;;;;;;;3.38;2.05;;;7.20;99.90;;;;;;5015462;28;20439;-79
2023/03/12 02:22:48;;;;;;;2.92;1.73;;;7.20;99.90;;;;;;5010846;28;20046;-80
2023/03/12 02:25:37;;;;;;;3.15;2.00;;;7.20;99.90;;;;;;5013422;28;20121;-79
2023/03/12 02:28:07;;;;;;;5.22;2.47;;;7.20;99.90;;;;;;5012208;28;20053;-79
2023/03/12 02:30:35;;;;;;;;;;;7.20;99.90;;;;;;5019313;28;20049;-80
2023/03/12 02:33:06;;;;;;;3.88;2.45;;;7.20;99.90;;;;;;5016727;28;19928;-80
2023/03/12 02:35:33;;;;;;;3.90;2.20;;;7.30;99.90;;;;;;5011626;28;20058;-78
2023/03/12 02:38:00;;;;;;;4.43;2.42;;;7.30;99.90;;;;;;5011576;28;20089;-80
2023/03/12 02:40:38;;;;;;;2.95;2.22;;;7.30;99.90;;;;;;5010337;28;20042;-79
2023/03/12 02:43:07;;;;;;;4.18;2.70;;;7.30;99.90;;;;;;5013606;28;20050;-80
2023/03/12 02:45:35;;;;;;;2.85;2.45;;;7.30;99.90;;;;;;5011898;28;20049;-79
2023/03/12 02:48:06;;;;;;;3.63;2.60;;;7.30;99.90;;;;;;5012563;28;20094;-80
2023/03/12 02:50:33;;;;;;;4.60;2.45;;;7.30;99.90;;;;;;5009956;28;20054;-80
2023/03/12 02:53:00;;;;;;;4.57;2.85;;;7.30;99.90;;;;;;5014890;28;20540;-78
2023/03/12 02:55:26;;;;;;;4.53;2.78;;;7.30;99.90;;;;;;5018747;28;20417;-80
2023/03/12 02:57:53;;;;;;;7.15;3.00;;;7.40;99.90;;;;;;5014048;28;20073;-79
2023/03/12 03:00:20;;;;;;;6.00;3.15;;;7.30;99.90;;;;;;5011859;28;20073;-79
2023/03/12 03:02:47;;;;;;;4.15;3.28;;;7.40;99.90;;;;;;5015588;28;20038;-80
2023/03/12 03:05:13;;;;;;;3.55;2.92;;;7.40;99.90;;;;;;5009224;28;20042;-80
2023/03/12 03:07:40;;;;;;;3.53;3.20;;;7.40;99.90;;;;;;5013734;28;20044;-80
2023/03/12 03:10:07;;;;;;;4.65;3.00;;;7.40;99.90;;;;;;5012838;28;20043;-80
2023/03/12 03:12:35;;;;;;;6.15;3.33;;;7.40;99.90;;;;;;5010456;28;20054;-79
2023/03/12 03:15:03;;;;;;;6.35;3.55;;;7.40;99.90;;;;;;5010307;28;20046;-79
2023/03/12 03:17:29;;;;;;;3.53;2.92;;;7.40;99.90;;;;;;5019938;28;20045;-80
2023/03/12 03:19:56;;;;;;;4.63;3.35;;;7.40;99.90;;;;;;5016628;28;20054;-79
2023/03/12 03:22:23;;;;;;;4.32;3.25;;;7.50;99.90;;;;;;5022910;28;20045;-79
2023/03/12 03:24:49;;;;;;;6.85;3.22;;;7.50;99.90;;;;;;5017976;28;20046;-80
2023/03/12 03:27:16;;;;;;;4.65;3.35;;;7.50;99.90;;;;;;5012174;28;20049;-80
2023/03/12 03:29:45;;;;;;;5.50;3.80;;;7.50;99.90;;;;;;5012367;28;20048;-80
2023/03/12 03:32:12;;;;;;;5.32;4.03;;;7.50;99.90;;;;;;5012463;28;20046;-79
2023/03/12 03:34:39;;;;;;;4.53;3.40;;;7.50;99.90;;;;;;5028005;28;20050;-80
2023/03/12 03:37:05;;;;;;;4.80;3.78;;;7.50;99.90;;;;;;5012818;28;20428;-79
2023/03/12 03:39:33;;;;;;;4.30;3.33;;;7.50;99.90;;;;;;5013958;28;20057;-80
2023/03/12 03:42:00;;;;;;;3.35;2.72;;;7.50;99.90;;;;;;5013950;28;20129;-79
2023/03/12 03:44:26;;;;;;;5.70;4.00;;;7.50;99.90;;;;;;5014494;28;20045;-79
2023/03/12 03:46:54;;;;;;;4.00;3.40;;;7.50;99.90;;;;;;5011277;28;20046;-80
2023/03/12 03:49:22;;;;;;;6.53;3.45;;;7.60;99.90;;;;;;5031548;28;20132;-80
2023/03/12 03:51:50;;;;;;;4.13;3.30;;;7.60;99.90;;;;;;5018825;28;20042;-82
2023/03/12 03:54:17;;;;;;;4.28;3.60;;;7.60;99.90;;;;;;5020072;28;20148;-78
2023/03/12 03:56:44;;;;;;;4.78;3.30;;;7.60;99.90;;;;;;5019811;28;20042;-79
2023/03/12 03:59:10;;;;;;;4.60;2.97;;;7.60;99.90;;;;;;5020830;28;20049;-81
2023/03/12 04:01:37;;;;;;;3.05;2.70;;;7.60;99.90;;;;;;5012382;28;20042;-80
2023/03/12 04:04:04;;;;;;;3.80;3.10;;;7.60;99.90;;;;;;5014152;28;20041;-80
2023/03/12 04:06:31;;;;;;;3.53;2.88;;;7.70;99.90;;;;;;5013969;28;20054;-79
2023/03/12 04:08:58;;;;;;;3.30;2.35;;;7.70;99.90;;;;;;5019263;28;20049;-80
2023/03/12 04:11:25;;;;;;;2.97;2.35;;;7.70;99.90;;;;;;5015434;28;20050;-79
2023/03/12 04:13:51;;;;;;;2.88;2.05;;;7.60;99.90;;;;;;5012349;28;20046;-78
2023/03/12 04:16:18;;;;;;;3.85;2.63;;;7.70;99.90;;;;;;5018375;28;20045;-80
2023/03/12 04:18:45;;;;;;;2.78;2.20;;;7.70;99.90;;;;;;5015985;28;20053;-78
2023/03/12 04:21:12;;;;;;;3.10;2.30;;;7.70;99.90;;;;;;5016633;28;20045;-80
2023/03/12 04:23:39;;;;;;;3.35;2.55;;;7.70;99.90;;;;;;5017640;28;20129;-77
2023/03/12 04:26:07;;;;;;;2.92;2.40;;;7.80;99.90;;;;;;5017777;28;20047;-79
2023/03/12 04:28:34;;;;;;;3.70;2.38;;;7.80;99.90;;;;;;5018436;28;20059;-80
2023/03/12 04:31:04;;;;;;;3.15;2.30;;;7.80;99.90;;;;;;5018727;28;20045;-79
2023/03/12 04:33:32;;;;;;;;;;;7.80;99.90;;;;;;5020398;28;20077;-77
2023/03/12 04:35:59;;;;;;;2.42;1.98;;;7.80;99.90;;;;;;5019899;28;19921;-78
2023/03/12 04:38:26;;;;;;;3.05;1.98;;;7.90;99.90;;;;;;5011285;28;20045;-80
2023/03/12 04:41:07;;;;;;;3.78;2.38;;;7.90;99.90;;;;;;5015597;28;20057;-80
2023/03/12 04:43:34;;;;;;;3.13;2.17;;;7.80;99.90;;;;;;5010793;28;20057;-80
2023/03/12 04:46:02;;;;;;;3.20;1.90;;;7.90;99.90;;;;;;5018305;28;20046;-79
2023/03/12 04:48:29;;;;;;;3.83;2.20;;;7.80;99.90;;;;;;5013638;28;20150;-80
2023/03/12 04:50:55;;;;;;;3.45;1.60;;;7.80;99.90;;;;;;5013981;28;20046;-79
2023/03/12 04:53:22;;;;;;;2.50;1.80;;;7.90;99.90;;;;;;5011266;28;20056;-79
2023/03/12 04:55:50;;;;;;;3.67;2.13;;;7.90;99.90;;;;;;5013925;28;20088;-79
2023/03/12 04:58:17;;;;;;;3.53;2.03;;;7.80;99.90;;;;;;5018468;28;20644;-79
2023/03/12 05:00:46;;;;;;;2.40;2.00;;;7.90;99.90;;;;;;5016100;28;20088;-80
2023/03/12 05:03:12;;;;;;;2.00;1.65;;;7.90;99.90;;;;;;5030296;28;20452;-79
2023/03/12 05:05:39;;;;;;;2.08;1.80;;;7.90;99.90;;;;;;5014480;28;20402;-81
2023/03/12 05:08:06;;;;;;;2.25;1.58;;;7.90;99.90;;;;;;5015394;28;20457;-79
2023/03/12 05:10:33;;;;;;;1.83;1.60;;;7.90;99.90;;;;;;5018078;28;20068;-79
2023/03/12 05:12:59;;;;;;;2.45;1.95;;;7.90;99.90;;;;;;5015757;28;20523;-79
2023/03/12 05:15:26;;;;;;;2.45;1.67;;;7.90;99.90;;;;;;5013378;28;20042;-79
2023/03/12 05:17:53;;;;;;;2.47;1.80;;;7.90;99.90;;;;;;5012696;28;20045;-79
2023/03/12 05:20:20;;;;;;;2.03;1.73;;;7.90;99.90;;;;;;5032113;28;20092;-79
2023/03/12 05:22:47;;;;;;;3.20;1.60;;;7.90;99.90;;;;;;5016738;28;20073;-80
2023/03/12 05:25:14;;;;;;;3.83;1.85;;;7.90;99.90;;;;;;5016735;28;20046;-79
2023/03/12 05:27:40;;;;;;;2.20;1.70;;;7.90;99.90;;;;;;5014859;28;20050;-80
2023/03/12 05:30:08;;;;;;;3.38;1.90;;;7.90;99.90;;;;;;5012211;28;20458;-80
2023/03/12 05:32:35;;;;;;;2.17;1.77;;;7.90;99.90;;;;;;5012898;28;20054;-78
2023/03/12 05:35:02;;;;;;;3.45;2.03;;;7.90;99.90;;;;;;5013087;28;20050;-78
2023/03/12 05:37:28;;;;;;;2.65;1.80;;;7.90;99.90;;;;;;5013364;28;20042;-80
2023/03/12 05:39:55;;;;;;;2.42;1.58;;;7.90;99.90;;;;;;5011881;28;20457;-78
2023/03/12 05:42:24;;;;;;;1.95;1.75;;;7.80;99.90;;;;;;5017736;28;20042;-80
2023/03/12 05:44:51;;;;;;;2.22;1.70;;;7.80;99.90;;;;;;5012354;28;20528;-79
2023/03/12 05:47:18;;;;;;;2.15;1.52;;;7.80;99.90;;;;;;5017195;28;20042;-79
2023/03/12 05:49:44;;;;;;;2.60;1.67;;;7.80;99.90;;;;;;5026840;28;20056;-79
2023/03/12 05:52:11;;;;;;;1.75;1.40;;;7.80;99.90;;;;;;5015257;28;20516;-80
2023/03/12 05:54:38;;;;;;;1.83;1.23;;;7.80;99.90;;;;;;5010812;28;20068;-79
2023/03/12 05:57:04;;;;;;;2.30;1.40;;;7.80;99.90;;;;;;5028802;28;20391;-79
2023/03/12 05:59:31;;;;;;;2.15;1.80;;;7.80;99.90;;;;;;5008749;28;20068;-80
2023/03/12 06:01:58;;;;;;;2.47;1.73;;;7.80;99.90;;;;;;5018437;28;20527;-79
2023/03/12 06:04:24;;;;;;;2.08;1.77;;;7.80;99.90;;;;;;5018191;28;20088;-79
2023/03/12 06:06:51;;;;;;;2.92;1.90;;;7.70;99.90;;;;;;5020576;28;20072;-79
2023/03/12 06:09:18;;;;;;;2.00;1.70;;;7.70;99.90;;;;;;5017749;28;20045;-80
2023/03/12 06:11:44;;;;;;;3.55;2.00;;;7.80;99.90;;;;;;5020824;28;20050;-80
2023/03/12 06:14:11;;;;;;;3.42;1.50;;;7.80;99.90;;;;;;5022122;28;20048;-80
2023/03/12 06:16:38;;;;;;;1.92;1.30;;;7.80;99.90;;;;;;5015295;28;20129;-80
2023/03/12 06:19:06;;;;;;;1.58;1.25;;;7.80;99.90;;;;;;5013075;28;20096;-79
2023/03/12 06:21:35;;;;;;;2.83;1.55;;;7.80;99.90;;;;;;5012838;28;20402;-80
2023/03/12 06:24:02;;;;;;;3.47;1.63;;;7.90;99.90;;;;;;5013268;28;20042;-80
2023/03/12 06:26:29;;;;;;;2.78;1.77;;;7.90;99.90;;;;;;5028044;28;20044;-79
2023/03/12 06:28:56;;;;;;;3.17;1.50;;;7.90;99.90;;;;;;5014901;28;20050;-79
2023/03/12 06:31:23;;;;;;;2.38;1.40;;;7.90;99.90;;;;;;5012817;28;20046;-80
2023/03/12 06:33:50;;;;;;;1.95;1.67;;;7.90;99.90;;;;;;5016394;28;20048;-80
2023/03/12 06:36:17;;;;;;;1.40;1.10;;;7.90;99.90;;;;;;5008242;28;20129;-80
2023/03/12 06:38:44;;;;;;;2.25;1.60;;;7.90;99.90;;;;;;5017204;28;20459;-79
2023/03/12 06:41:13;;;;;;;2.05;1.55;;;7.90;99.90;;;;;;5007346;28;20042;-80
2023/03/12 06:43:41;;;;;;;1.58;1.30;;;7.80;99.90;;;;;;5011942;28;20046;-79
2023/03/12 06:46:12;;;;;;;1.42;1.25;;;7.80;99.90;;;;;;5010250;28;20056;-79
2023/03/12 06:48:40;;;;;;;2.70;1.80;;;7.80;99.90;;;;;;5010721;28;20050;-80
2023/03/12 06:51:09;;;;;;;4.07;1.73;;;7.80;99.90;;;;;;5022326;28;20049;-79
2023/03/12 06:53:36;;;;;;;1.73;1.40;;;7.80;99.90;;;;;;5013925;28;20056;-80
2023/03/12 06:56:03;;;;;;;5.15;1.60;;;7.90;99.90;;;;;;5012151;28;20101;-79
2023/03/12 06:58:30;;;;;;;2.95;2.00;;;7.90;99.90;;;;;;5015464;28;20061;-82
2023/03/12 07:00:57;;;;;;;4.05;2.00;;;8.00;99.90;;;;;;5010081;28;20053;-79
2023/03/12 07:03:24;;;;;;;2.90;1.52;;;8.10;99.90;;;;;;5013199;28;20510;-82
2023/03/12 07:05:51;;;;;;;2.92;1.70;;;8.20;99.90;;;;;;5013730;28;20057;-80
2023/03/12 07:08:17;;;;;;;2.20;1.45;;;8.20;99.90;;;;;;5014173;28;20046;-79
2023/03/12 07:10:45;;;;;;;2.35;1.58;;;8.30;99.90;;;;;;5011739;28;20042;-79
2023/03/12 07:13:12;;;;;;;3.90;1.80;;;8.40;99.90;;;;;;5015415;28;20061;-80
2023/03/12 07:15:38;;;;;;;2.67;1.88;;;8.40;99.90;;;;;;5018276;28;20077;-80
2023/03/12 07:18:10;;;;;;;3.60;2.40;;;8.50;99.90;;;;;;5019919;28;20057;-79
2023/03/12 07:20:39;;;;;;;3.28;1.65;;;8.50;99.90;;;;;;5021429;28;20136;-79
2023/03/12 07:23:07;;;;;;;4.47;3.28;;;8.60;99.90;;;;;;5019450;28;20046;-78
2023/03/12 07:25:38;;;;;;;4.15;1.50;;;8.70;99.90;;;;;;5013233;28;20054;-79
2023/03/12 07:28:06;;;;;;;2.88;1.80;;;8.70;99.90;;;;;;5027118;28;20424;-80
2023/03/12 07:30:33;;;;;;;2.72;2.00;;;8.70;99.90;;;;;;5018924;28;20426;-81
2023/03/12 07:33:05;;;;;;;2.97;1.52;;;8.80;99.90;;;;;;5027850;28;20053;-80
2023/03/12 07:35:32;;;;;;;2.95;1.98;;;8.80;99.90;;;;;;5027009;28;20136;-80
2023/03/12 07:38:00;;;;;;;1.48;1.30;;;8.90;99.90;;;;;;5029862;28;20059;-80
2023/03/12 07:40:27;;;;;;;2.25;1.60;;;8.90;99.90;;;;;;5021293;28;20132;-82
2023/03/12 07:42:54;;;;;;;2.17;1.65;;;9.00;99.90;;;;;;5016097;28;20520;-79
2023/03/12 07:45:21;;;;;;;2.00;1.13;;;9.00;99.90;;;;;;5015590;28;20048;-79
2023/03/12 07:47:48;;;;;;;2.53;1.40;;;9.10;99.90;;;;;;5016179;28;20042;-80
2023/03/12 07:50:17;;;;;;;2.75;1.15;;;9.10;99.90;;;;;;5017146;28;20057;-80
2023/03/12 07:52:44;;;;;;;1.95;1.20;;;9.20;99.90;;;;;;5011922;28;20068;-80
2023/03/12 07:55:11;;;;;;;2.75;1.10;;;9.20;99.90;;;;;;5014646;28;20418;-79
2023/03/12 07:57:38;;;;;;;1.15;1.00;;;9.30;99.90;;;;;;5013852;28;20141;-80
2023/03/12 08:00:07;;;;;;;3.47;1.17;;;9.30;99.90;;;;;;5034946;28;20506;-79
2023/03/12 08:02:34;;;;;;;1.13;1.00;;;9.30;99.90;;;;;;5017302;28;20527;-81
2023/03/12 08:05:01;;;;;;;1.63;1.17;;;9.40;99.90;;;;;;5020581;28;20589;-80
2023/03/12 08:07:31;;;;;;;1.45;0.90;;;9.40;99.90;;;;;;5015955;28;20053;-78
2023/03/12 08:09:59;;;;;;;3.03;1.10;;;9.50;99.90;;;;;;5021610;28;20130;-80
2023/03/12 08:12:26;;;;;;;3.92;1.10;;;9.50;99.90;;;;;;5019143;28;20129;-80
2023/03/12 08:14:53;;;;;;;1.48;1.00;;;9.60;99.90;;;;;;5022942;28;20053;-79
2023/03/12 08:17:20;;;;;;;2.83;1.30;;;9.70;99.90;;;;;;5014260;28;20320;-80
2023/03/12 08:19:47;;;;;;;1.58;1.10;;;9.70;99.90;;;;;;5013894;28;20579;-80
2023/03/12 08:22:14;;;;;;;2.28;1.08;;;9.70;99.90;;;;;;5011196;28;20532;-80
2023/03/12 08:24:41;;;;;;;2.33;1.63;;;9.70;99.90;;;;;;5018478;28;20046;-83
2023/03/12 08:27:08;;;;;;;3.63;1.42;;;9.80;99.90;;;;;;5014954;28;20044;-77
2023/03/12 08:29:35;;;;;;;1.77;0.93;;;9.90;99.90;;;;;;5008107;28;20501;-82
2023/03/12 08:32:01;;;;;;;1.40;1.02;;;9.90;99.90;;;;;;5014876;28;20042;-80
2023/03/12 08:34:34;;;;;;;2.97;1.10;;;10.00;99.90;;;;;;5012476;28;20085;-78
2023/03/12 08:37:02;;;;;;;2.72;0.80;;;10.00;99.90;;;;;;5010188;28;20136;-79
2023/03/12 08:39:29;;;;;;;2.13;1.10;;;10.10;99.90;;;;;;5015207;28;20567;-80
2023/03/12 08:41:55;;;;;;;3.05;1.10;;;10.10;99.90;;;;;;5014707;28;20054;-80
2023/03/12 08:44:23;;;;;;;3.70;0.93;;;10.10;99.90;;;;;;5010238;28;20080;-79
2023/03/12 08:46:50;;;;;;;3.33;0.80;;;10.10;99.90;;;;;;5024758;28;20089;-81
2023/03/12 08:49:19;;;;;;;3.47;1.20;;;10.10;99.90;;;;;;5011687;28;20117;-79
2023/03/12 08:51:46;;;;;;;3.75;1.10;;;10.20;99.90;;;;;;5019737;28;20074;-80
2023/03/12 08:54:13;;;;;;;1.65;0.70;;;10.30;99.90;;;;;;5012942;28;20045;-80
2023/03/12 08:56:43;;;;;;;2.00;0.90;;;10.40;99.90;;;;;;5015619;28;20056;-80
2023/03/12 08:59:11;;;;;;;1.05;0.60;;;10.40;99.90;;;;;;5016691;28;20054;-78
2023/03/12 09:01:38;;;;;;;1.35;0.70;;;10.50;99.90;;;;;;5012054;28;20045;-80
2023/03/12 09:04:09;;;;;;;1.35;0.80;;;10.60;99.90;;;;;;5011190;28;20041;-80
2023/03/12 09:06:37;;;;;;;1.48;1.00;;;10.60;99.90;;;;;;5013282;28;20049;-80
2023/03/12 09:09:04;;;;;;;2.15;0.90;;;10.70;99.90;;;;;;5011567;28;20531;-80
2023/03/12 09:11:32;;;;;;;2.95;1.05;;;10.70;99.90;;;;;;5009456;28;20074;-78
2023/03/12 09:14:00;;;;;;;2.45;1.30;;;10.70;99.90;;;;;;5013935;28;20049;-80
2023/03/12 09:16:46;;;;;;;2.63;1.23;;;10.80;99.90;;;;;;5016833;28;20103;-79
2023/03/12 09:19:13;;;;;;;2.88;1.08;;;10.90;99.90;;;;;;5015700;28;20077;-79
2023/03/12 09:21:40;;;;;;;3.25;1.20;;;10.90;99.90;;;;;;5016268;28;20057;-79
2023/03/12 09:24:07;;;;;;;3.65;1.58;;;10.90;99.90;;;;;;5022289;28;20659;-77
2023/03/12 09:26:33;;;;;;;1.20;1.00;;;10.90;99.90;;;;;;5009804;28;20124;-80
2023/03/12 09:29:00;;;;;;;1.10;0.80;;;11.00;99.90;;;;;;5016011;28;20038;-78
2023/03/12 09:31:27;;;;;;;2.53;1.30;;;11.00;99.90;;;;;;5009928;28;20050;-79
2023/03/12 09:33:53;;;;;;;3.83;1.27;;;11.00;99.90;;;;;;5015308;28;20132;-80
2023/03/12 09:36:20;;;;;;;3.42;1.55;;;11.00;99.90;;;;;;5023103;28;20049;-79
2023/03/12 09:38:47;;;;;;;3.63;1.58;;;11.10;99.90;;;;;;5014034;28;20058;-80
2023/03/12 09:41:18;;;;;;;2.92;1.10;;;11.10;99.90;;;;;;5024060;28;20496;-80
2023/03/12 09:43:56;;;;;;;1.42;0.98;;;11.10;99.90;;;;;;5014378;28;20440;-78
2023/03/12 09:46:33;;;;;;;1.35;1.00;;;11.20;99.90;;;;;;5013207;28;20068;-79
2023/03/12 09:49:05;;;;;;;1.77;0.93;;;11.10;99.90;;;;;;5020216;28;20050;-79
2023/03/12 09:51:44;;;;;;;2.03;1.02;;;11.10;99.90;;;;;;5013355;28;20045;-79
2023/03/12 09:54:59;;;;;;;1.90;0.98;;;11.20;99.90;;;;;;5012803;28;20046;-77
2023/03/12 09:57:28;;;;;;;1.55;0.75;;;11.20;99.90;;;;;;5014320;28;20128;-79
2023/03/12 09:59:55;;;;;;;1.98;1.30;;;11.30;99.90;;;;;;5009491;28;20046;-79
2023/03/12 10:02:41;;;;;;;3.33;1.13;;;11.30;99.90;;;;;;5017732;28;20073;-78
2023/03/12 10:05:35;;;;;;;4.82;1.27;;;11.30;99.90;;;;;;5012476;28;20046;-79
2023/03/12 10:08:19;;;;;;;3.15;1.48;;;11.30;99.90;;;;;;5020497;28;20056;-78
2023/03/12 10:10:55;;;;;;;3.25;1.27;;;11.30;99.90;;;;;;5017159;28;20324;-77
2023/03/12 10:13:44;;;;;;;2.20;1.10;;;11.40;99.90;;;;;;5016850;28;20050;-79
2023/03/12 10:16:31;;;;;;;1.92;1.33;;;11.40;99.90;;;;;;5016005;28;20052;-79
2023/03/12 10:19:16;;;;;;;2.28;1.30;;;11.40;99.90;;;;;;5021908;28;20424;-79
2023/03/12 10:21:57;;;;;;;3.17;1.55;;;11.40;99.90;;;;;;5019867;28;20157;-78
2023/03/12 10:24:40;;;;;;;1.90;1.23;;;11.50;99.90;;;;;;5027681;28;20046;-79
2023/03/12 10:27:14;;;;;;;1.60;1.15;;;11.60;99.90;;;;;;5013750;28;20064;-79
2023/03/12 10:29:43;;;;;;;3.50;1.48;;;11.60;99.90;;;;;;5019590;28;20502;-79
2023/03/12 10:32:37;;;;;;;3.30;1.00;;;11.70;99.90;;;;;;5010477;28;20494;-79
2023/03/12 10:35:14;;;;;;;3.80;1.80;;;11.70;99.90;;;;;;5013336;28;20486;-80
2023/03/12 10:37:49;;;;;;;4.03;1.40;;;11.70;99.90;;;;;;5011863;28;20054;-80
2023/03/12 10:40:21;;;;;;;3.90;1.73;;;11.60;99.90;;;;;;5015205;28;20041;-78
2023/03/12 10:42:48;;;;;;;1.75;1.48;;;11.60;99.90;;;;;;5025518;28;20108;-79
2023/03/12 10:45:39;;;;;;;2.25;1.20;;;11.60;99.90;;;;;;5017536;28;20052;-79
2023/03/12 10:48:10;;;;;;;2.67;1.55;;;11.50;99.90;;;;;;5021015;28;20477;-79
2023/03/12 10:50:39;;;;;;;3.72;1.20;;;11.50;99.90;;;;;;5021847;28;20042;-79
2023/03/12 10:53:21;;;;;;;2.92;1.58;;;11.60;99.90;;;;;;5018104;28;20420;-79
2023/03/12 10:56:12;;;;;;;4.47;1.50;;;11.60;99.90;;;;;;5011289;28;20042;-79
2023/03/12 10:58:41;;;;;;;4.53;1.35;;;11.70;99.90;;;;;;5022495;28;20052;-79
2023/03/12 11:01:14;;;;;;;3.95;1.33;;;11.70;99.90;;;;;;5014722;28;20118;-79
2023/03/12 11:03:42;;;;;;;8.13;1.70;;;11.80;99.90;;;;;;5015340;28;20120;-80
2023/03/12 11:06:18;;;;;;;4.50;1.40;;;11.80;99.90;;;;;;5027119;28;20037;-78
2023/03/12 11:09:18;;;;;;;4.32;1.55;;;11.80;99.90;;;;;;5018576;28;20409;-80
2023/03/12 11:11:49;;;;;;;5.10;1.90;;;11.90;99.90;;;;;;5006012;28;20136;-80
2023/03/12 11:14:20;;;;;;;;;;;12.00;99.90;;;;;;5022429;28;20417;-79
2023/03/12 11:16:48;;;;;;;7.28;1.90;;;12.00;99.90;;;;;;5020430;28;19976;-77
2023/03/12 11:19:29;;;;;;;6.75;1.52;;;12.00;99.90;;;;;;5017067;28;20060;-78
2023/03/12 11:22:07;;;;;;;6.55;1.45;;;11.90;99.90;;;;;;5015509;28;20058;-79
2023/03/12 11:24:34;;;;;;;6.43;1.85;;;11.80;99.90;;;;;;5016822;28;20049;-78
2023/03/12 11:27:06;;;;;;;6.30;1.63;;;11.80;99.90;;;;;;5008155;28;20053;-78
2023/03/12 11:29:45;;;;;;;7.30;1.92;;;11.80;99.90;;;;;;5012922;28;20065;-78
2023/03/12 11:32:39;;;;;;;10.67;1.77;;;11.70;99.90;;;;;;5011077;28;20043;-79
2023/03/12 11:35:12;;;;;;;9.45;1.55;;;11.70;99.90;;;;;;5015197;28;21947;-79
2023/03/12 11:37:57;;;;;;;9.80;1.60;;;11.70;99.90;;;;;;5013646;28;20820;-77
2023/03/12 11:40:58;;;;;;;9.93;1.80;;;11.80;99.90;;;;;;5013140;28;20060;-80
2023/03/12 11:43:42;;;;;;;5.35;1.42;;;11.90;99.90;;;;;;5019249;28;20054;-79
2023/03/12 11:46:28;;;;;;;6.47;1.95;;;12.10;99.90;;;;;;5013689;28;20046;-78
2023/03/12 11:48:55;;;;;;;6.88;1.65;;;12.20;99.90;;;;;;5014197;28;20041;-79
2023/03/12 11:51:48;;;;;;;8.38;1.75;;;12.40;99.90;;;;;;5017946;28;20050;-79
2023/03/12 11:54:46;;;;;;;4.63;1.60;;;12.50;99.90;;;;;;5015101;28;20136;-79
2023/03/12 11:57:27;;;;;;;8.15;1.90;;;12.60;99.90;;;;;;5015700;28;20042;-77
2023/03/12 12:00:22;;;;;;;8.48;1.80;;;12.60;99.90;;;;;;5008762;28;20547;-77
2023/03/12 12:03:07;;;;;;;8.48;1.60;;;12.60;99.90;;;;;;5009203;28;20421;-79
2023/03/12 12:05:58;;;;;;;7.45;1.63;;;12.70;99.90;;;;;;5025005;28;20565;-79
2023/03/12 12:08:41;;;;;;;6.25;1.42;;;12.70;99.90;;;;;;5009892;28;20426;-78
2023/03/12 12:11:24;;;;;;;5.88;1.77;;;12.70;99.90;;;;;;5011843;28;20498;-79
2023/03/12 12:14:02;;;;;;;5.55;1.27;;;12.60;99.90;;;;;;5014577;28;20061;-79
2023/03/12 12:16:43;;;;;;;7.35;1.67;;;12.60;99.90;;;;;;5009896;28;20455;-77
2023/03/12 12:19:27;;;;;;;10.05;1.77;;;12.50;99.90;;;;;;5010823;28;20060;-79
2023/03/12 12:21:53;;;;;;;7.03;1.60;;;12.60;99.90;;;;;;5017455;28;20053;-78
2023/03/12 12:25:00;;;;;;;8.07;2.20;;;12.60;99.90;;;;;;5010860;28;20498;-79
2023/03/12 12:27:46;;;;;;;9.50;2.80;;;12.60;99.90;;;;;;5012093;28;20050;-76
2023/03/12 12:30:25;;;;;;;9.90;2.05;;;12.60;99.90;;;;;;5013610;28;20046;-79
2023/03/12 12:33:10;;;;;;;8.95;1.75;;;12.70;99.90;;;;;;5009422;28;20068;-80
2023/03/12 12:35:40;;;;;;;5.50;1.38;;;12.60;99.90;;;;;;5011651;28;20398;-78
2023/03/12 12:38:17;;;;;;;3.65;1.33;;;12.70;99.90;;;;;;5011105;28;20050;-79
2023/03/12 12:41:12;;;;;;;5.55;1.90;;;12.80;99.90;;;;;;5011480;28;20050;-79
2023/03/12 12:43:42;;;;;;;9.07;1.75;;;12.90;99.90;;;;;;4997895;28;20086;-78
2023/03/12 12:46:16;;;;;;;3.75;1.20;;;13.10;99.90;;;;;;5009468;28;20049;-80
2023/03/12 12:48:54;;;;;;;8.43;1.90;;;13.10;99.90;;;;;;5010085;28;20116;-77
2023/03/12 12:51:28;;;;;;;7.35;1.85;;;13.20;99.90;;;;;;5018130;28;20038;-80
2023/03/12 12:54:17;;;;;;;6.03;1.38;;;13.20;99.90;;;;;;5013815;28;20054;-79
2023/03/12 12:57:02;;;;;;;7.03;1.63;;;13.20;99.90;;;;;;5020159;28;20049;-78
2023/03/12 12:59:35;;;;;;;7.60;1.60;;;13.30;99.90;;;;;;5013364;28;20133;-79
2023/03/12 13:02:04;;;;;;;10.38;1.90;;;13.30;99.90;;;;;;5008567;28;20057;-79
2023/03/12 13:04:34;;;;;;;7.32;1.95;;;13.20;99.90;;;;;;5014837;28;20057;-78
2023/03/12 13:07:19;;;;;;;7.00;1.80;;;13.20;99.90;;;;;;5008336;28;20053;-79
2023/03/12 13:09:54;;;;;;;6.22;1.77;;;13.30;99.90;;;;;;5014027;28;20053;-79
2023/03/12 13:12:24;;;;;;;8.18;2.03;;;13.40;99.90;;;;;;5014305;28;20056;-75
2023/03/12 13:14:52;;;;;;;7.38;1.40;;;13.50;99.90;;;;;;5009829;28;20060;-78